0N0 weather

Roosterville Airport
Liberty, Missouri, United States

Public forecast

Using degrees Fahrenheit for public forecast. Weather courtesy of forecast.io.

METAR (pilot weather report)

Closest report is Midwest National Air Center Airport, 6.6 nm (12.3 km) ENE. Retrieved 2019/08/24 21:35 UTC (0 seconds ago):

KGPH 242135Z AUTO 13006KT 10SM OVC050 23/15 A3005 RMK AO2

TAF (pilot weather forecast)

Closest forecast is Charles B. Wheeler Downtown Airport, 12.3 nm (22.7 km) SW. Retrieved 2019/08/24 18:22 UTC (3 hours ago):

TAF KMKC 241720Z 2418/2518 10012G20KT P6SM SCT015 BKN050 TEMPO 2418/2419 BKN015 FM250000 12012KT P6SM SCT015 BKN050 FM250600 12011KT 5SM -DZ OVC015 FM251600 12012KT P6SM OVC020